Time;durP1;ratioP1;P1;durP2;ratioP2;P2;SDS_P1;SDS_P2;PMS_P1;PMS_P2;Temp;Humidity;BMP_temperature;BMP_pressure;BME280_temperature;BME280_humidity;BME280_pressure;Samples;Min_cycle;Max_cycle;Signal;HPM_P1;HPM_P2
2021/11/22 00:00:18;;;;;;;948.67;882.22;;;;;;;7.97;70.71;101002.34;683768;28;67487;-72
2021/11/22 00:00:41;;;;;;;950.33;883.88;;;;;;;7.99;70.79;101014.63;682993;28;92286;-72
2021/11/22 00:01:09;;;;;;;951.25;884.85;;;;;;;7.98;70.54;101009.41;681569;28;137926;-72
2021/11/22 00:01:31;;;;;;;948.15;881.65;;;;;;;7.98;70.72;101012.09;686033;28;54123;-72
2021/11/22 00:01:53;;;;;;;950.85;884.55;;;;;;;7.96;70.61;101006.88;685930;28;45242;-72
2021/11/22 00:02:15;;;;;;;945.17;879.20;;;;;;;7.93;70.71;101010.72;686413;28;69277;-72
2021/11/22 00:02:38;;;;;;;961.63;895.05;;;;;;;7.92;70.94;101017.09;685156;28;45342;-72
2021/11/22 00:02:59;;;;;;;932.72;866.88;;;;;;;7.90;70.63;101004.81;686343;28;69244;-72
2021/11/22 00:03:21;;;;;;;914.17;849.05;;;;;;;7.88;70.73;101012.16;686989;28;38820;-72
2021/11/22 00:03:42;;;;;;;930.72;865.20;;;;;;;7.87;71.06;101014.03;688133;28;22380;-72
2021/11/22 00:04:04;;;;;;;946.20;880.00;;;;;;;7.86;71.08;101006.94;688316;28;21534;-72
2021/11/22 00:04:26;;;;;;;936.50;870.45;;;;;;;7.84;70.79;101006.25;688660;28;1514;-72
2021/11/22 00:04:49;;;;;;;926.90;861.00;;;;;;;7.84;71.19;101011.66;686756;28;68507;-72
2021/11/22 00:05:11;;;;;;;922.55;856.85;;;;;;;7.82;71.08;101005.59;687201;28;69310;-72
2021/11/22 00:05:33;;;;;;;943.80;877.67;;;;;;;7.81;71.01;101014.63;687663;28;1562;-73
2021/11/22 00:05:56;;;;;;;919.78;854.42;;;;;;;7.81;71.23;101011.13;684887;28;48424;-72
2021/11/22 00:06:18;;;;;;;923.92;858.35;;;;;;;7.80;71.33;101009.41;685328;28;10003;-72
2021/11/22 00:06:40;;;;;;;900.35;835.25;;;;;;;7.76;71.20;101003.50;686529;28;879;-72
2021/11/22 00:07:03;;;;;;;923.38;857.75;;;;;;;7.80;71.24;101007.56;686168;28;943;-72
2021/11/22 00:07:26;;;;;;;913.10;847.83;;;;;;;7.83;71.21;101015.31;680050;28;69270;-72
2021/11/22 00:07:47;;;;;;;935.08;869.17;;;;;;;7.83;71.32;101007.25;682570;28;45258;-72
2021/11/22 00:08:09;;;;;;;936.20;870.35;;;;;;;7.84;71.56;101008.97;684630;28;45264;-72
2021/11/22 00:08:31;;;;;;;930.90;865.28;;;;;;;7.85;71.54;101013.34;685776;28;23477;-72
2021/11/22 00:08:52;;;;;;;942.63;876.55;;;;;;;7.85;71.51;101009.78;685003;28;46393;-72
2021/11/22 00:09:14;;;;;;;946.60;880.50;;;;;;;7.86;71.43;101006.94;684127;28;46052;-72
2021/11/22 00:09:35;;;;;;;944.83;878.72;;;;;;;7.86;71.48;101012.31;685234;28;23574;-72
2021/11/22 00:09:57;;;;;;;946.10;879.80;;;;;;;7.87;71.69;101010.50;685090;28;22434;-72
2021/11/22 00:10:19;;;;;;;934.10;868.35;;;;;;;7.88;71.58;101010.34;683645;28;69424;-72
2021/11/22 00:10:41;;;;;;;935.45;869.63;;;;;;;7.87;71.43;101005.97;684956;28;45130;-72
2021/11/22 00:11:02;;;;;;;938.33;872.55;;;;;;;7.89;71.41;101005.81;686558;28;21513;-72
2021/11/22 00:11:25;;;;;;;944.70;878.70;;;;;;;7.89;71.59;101006.63;686183;28;44042;-72
2021/11/22 00:11:48;;;;;;;947.08;880.92;;;;;;;7.92;71.43;101013.56;687302;28;45363;-72
2021/11/22 00:12:10;;;;;;;947.40;881.15;;;;;;;7.91;71.56;101010.00;685724;28;92086;-72
2021/11/22 00:12:33;;;;;;;952.05;885.65;;;;;;;7.89;71.32;101017.41;684619;28;21738;-73
2021/11/22 00:12:56;;;;;;;958.90;892.15;;;;;;;7.88;71.31;101006.78;678067;28;112655;-72
2021/11/22 00:13:18;;;;;;;954.38;887.78;;;;;;;7.88;71.43;101013.03;684213;28;2446;-73
2021/11/22 00:13:39;;;;;;;939.92;874.10;;;;;;;7.90;71.35;101016.41;684797;28;22489;-73
2021/11/22 00:14:01;;;;;;;959.65;893.08;;;;;;;7.88;71.53;101018.41;685049;28;43315;-73
2021/11/22 00:14:23;;;;;;;975.63;908.53;;;;;;;7.88;71.27;101017.56;685609;28;22332;-73
2021/11/22 00:14:44;;;;;;;1002.83;934.67;;;;;;;7.88;71.55;101017.56;686120;28;67468;-73
2021/11/22 00:15:12;;;;;;;1022.63;953.72;;;;;;;7.87;71.40;101016.72;688357;28;23437;-73
2021/11/22 00:15:34;;;;;;;941.30;875.30;;;;;;;7.89;71.55;101013.88;682791;28;136941;-73
2021/11/22 00:15:56;;;;;;;933.38;867.58;;;;;;;7.89;71.66;101013.88;687423;28;45229;-73
2021/11/22 00:16:18;;;;;;;938.15;872.25;;;;;;;7.93;71.42;101021.50;686115;28;46384;-72
2021/11/22 00:16:39;;;;;;;935.70;869.92;;;;;;;7.90;71.43;101016.41;687052;28;23465;-72
2021/11/22 00:17:01;;;;;;;937.87;872.07;;;;;;;7.93;71.29;101017.94;688197;28;23469;-72
2021/11/22 00:17:23;;;;;;;931.88;866.38;;;;;;;7.92;71.51;101022.47;686097;28;50670;-73
2021/11/22 00:17:45;;;;;;;929.95;864.35;;;;;;;7.92;71.38;101024.31;686230;28;22145;-73
2021/11/22 00:18:06;;;;;;;932.75;867.13;;;;;;;7.94;71.35;101025.00;687249;28;46708;-72
2021/11/22 00:18:29;;;;;;;921.63;856.45;;;;;;;7.94;71.50;101022.31;686981;28;46210;-72
2021/11/22 00:18:51;;;;;;;929.90;864.40;;;;;;;7.93;71.36;101023.31;686320;28;69425;-72
2021/11/22 00:19:13;;;;;;;922.03;856.75;;;;;;;7.93;71.30;101026.88;686974;28;46136;-72
2021/11/22 00:19:34;;;;;;;918.38;853.38;;;;;;;7.94;71.29;101022.31;687803;28;23482;-73
2021/11/22 00:19:58;;;;;;;925.38;860.17;;;;;;;7.95;71.58;101024.03;687791;28;43745;-72
2021/11/22 00:20:21;;;;;;;931.15;865.75;;;;;;;7.97;71.26;101029.25;685028;28;92928;-72
2021/11/22 00:20:42;;;;;;;930.70;865.33;;;;;;;7.98;71.52;101029.09;686212;28;68191;-72
2021/11/22 00:21:04;;;;;;;942.08;876.22;;;;;;;8.00;71.25;101029.78;688182;28;22447;-72
2021/11/22 00:21:25;;;;;;;915.58;850.60;;;;;;;8.03;71.28;101025.94;687133;28;23386;-72
2021/11/22 00:21:48;;;;;;;895.28;830.88;;;;;;;8.05;71.35;101026.63;688263;28;22358;-72
2021/11/22 00:22:09;;;;;;;918.10;853.03;;;;;;;8.10;71.35;101029.69;687890;28;46144;-73
2021/11/22 00:22:31;;;;;;;925.67;860.38;;;;;;;8.13;71.65;101034.78;686534;28;46332;-72
2021/11/22 00:22:54;;;;;;;928.65;863.13;;;;;;;8.13;71.47;101037.47;686520;28;43090;-72
2021/11/22 00:23:15;;;;;;;946.75;880.67;;;;;;;8.15;71.43;101030.09;686005;28;69611;-72
2021/11/22 00:23:37;;;;;;;932.20;866.70;;;;;;;8.15;71.10;101026.56;688111;28;22209;-73
2021/11/22 00:23:58;;;;;;;930.08;864.60;;;;;;;8.17;71.02;101038.84;688089;28;23445;-73
2021/11/22 00:24:21;;;;;;;927.58;862.22;;;;;;;8.18;71.02;101035.19;686373;28;45302;-73
2021/11/22 00:24:42;;;;;;;927.10;861.60;;;;;;;8.18;70.86;101034.31;689707;28;44376;-73
2021/11/22 00:25:05;;;;;;;921.58;856.45;;;;;;;8.16;70.68;101031.78;689466;28;46266;-72
2021/11/22 00:25:28;;;;;;;929.45;863.95;;;;;;;8.12;70.86;101028.56;688243;28;69289;-73
2021/11/22 00:25:49;;;;;;;926.65;861.25;;;;;;;8.11;70.61;101028.72;688906;28;69630;-73
2021/11/22 00:26:11;;;;;;;926.80;861.53;;;;;;;8.10;70.71;101035.94;690585;28;22266;-72
2021/11/22 00:26:32;;;;;;;942.40;876.33;;;;;;;8.09;70.58;101033.41;689446;28;22389;-72
2021/11/22 00:26:55;;;;;;;956.00;889.60;;;;;;;8.04;70.77;101025.81;686831;28;46385;-72
2021/11/22 00:27:17;;;;;;;957.08;890.83;;;;;;;8.06;70.71;101039.09;683730;28;91101;-73
2021/11/22 00:27:39;;;;;;;949.20;883.13;;;;;;;8.04;70.99;101030.31;686381;28;21220;-73
2021/11/22 00:28:12;;;;;;;958.60;892.17;;;;;;;8.02;71.04;101037.69;681610;28;123695;-72
2021/11/22 00:29:02;;;;;;;921.08;855.75;;;;;;;8.01;71.09;101034.16;676463;29;135777;-73
2021/11/22 00:29:34;;;;;;;937.05;871.15;;;;;;;8.00;71.25;101035.16;676796;28;137644;-73
2021/11/22 00:30:23;;;;;;;923.85;858.75;;;;;;;7.97;71.12;101031.94;679427;28;135844;-72
2021/11/22 00:31:06;;;;;;;933.67;868.05;;;;;;;7.97;71.34;101040.84;682334;28;135899;-72
2021/11/22 00:31:35;;;;;;;919.80;854.60;;;;;;;7.96;71.26;101033.75;683583;28;137633;-73
2021/11/22 00:32:05;;;;;;;926.80;861.30;;;;;;;7.98;71.08;101045.25;681049;28;137890;-73
2021/11/22 00:32:45;;;;;;;918.03;852.72;;;;;;;7.99;71.21;101038.84;676514;28;117989;-72
2021/11/22 00:33:22;;;;;;;905.67;841.00;;;;;;;8.03;71.51;101040.25;676593;28;137232;-72
2021/11/22 00:33:47;;;;;;;914.42;849.40;;;;;;;8.05;71.40;101037.41;680459;28;90499;-73
2021/11/22 00:34:21;;;;;;;932.83;867.17;;;;;;;8.06;71.48;101044.47;679160;28;137474;-73
2021/11/22 00:34:46;;;;;;;924.25;858.80;;;;;;;8.07;71.63;101036.25;679575;28;137401;-73
2021/11/22 00:35:32;;;;;;;939.40;873.70;;;;;;;8.13;71.39;101042.84;679713;28;137791;-72
2021/11/22 00:35:55;;;;;;;941.67;875.70;;;;;;;8.16;71.14;101039.00;683278;28;70395;-72
2021/11/22 00:36:16;;;;;;;936.25;870.42;;;;;;;8.14;71.34;101039.16;684539;28;69246;-73
2021/11/22 00:36:37;;;;;;;936.40;870.67;;;;;;;8.18;71.14;101042.38;688259;28;21297;-72
2021/11/22 00:36:59;;;;;;;942.60;876.70;;;;;;;8.20;71.33;101045.78;688399;28;22423;-72
2021/11/22 00:37:24;;;;;;;943.67;877.75;;;;;;;8.19;70.92;101041.41;686710;28;45236;-73
2021/11/22 00:37:50;;;;;;;938.60;872.63;;;;;;;8.20;70.91;101040.41;683946;28;115134;-73
2021/11/22 00:38:11;;;;;;;937.03;871.15;;;;;;;8.19;70.80;101036.84;683810;28;138011;-72
2021/11/22 00:38:34;;;;;;;928.00;862.53;;;;;;;8.19;71.06;101030.63;690621;28;1561;-73
2021/11/22 00:38:55;;;;;;;905.97;841.30;;;;;;;8.21;70.77;101044.78;688682;28;67490;-72
2021/11/22 00:39:16;;;;;;;909.85;845.17;;;;;;;8.18;71.01;101037.88;689807;28;22394;-73
2021/11/22 00:39:38;;;;;;;922.95;857.78;;;;;;;8.23;70.72;101040.94;690575;28;22517;-73
2021/11/22 00:40:00;;;;;;;925.08;859.75;;;;;;;8.24;70.77;101044.47;684036;28;46330;-73
2021/11/22 00:40:23;;;;;;;939.97;874.22;;;;;;;8.25;71.04;101044.31;686533;28;1109;-72
2021/11/22 00:40:45;;;;;;;942.25;876.38;;;;;;;8.25;70.93;101041.63;683875;28;68292;-72
2021/11/22 00:41:07;;;;;;;953.55;887.33;;;;;;;8.28;70.74;101041.31;684180;28;46222;-73
2021/11/22 00:41:29;;;;;;;941.85;875.95;;;;;;;8.30;70.87;101033.09;685029;28;45306;-72
2021/11/22 00:41:53;;;;;;;941.10;875.13;;;;;;;8.30;70.87;101038.47;687418;28;1793;-73
2021/11/22 00:42:14;;;;;;;942.88;876.88;;;;;;;8.31;70.74;101037.47;686495;28;68355;-73
2021/11/22 00:42:38;;;;;;;942.72;876.95;;;;;;;8.31;70.81;101034.78;686850;28;21956;-72
2021/11/22 00:43:01;;;;;;;926.88;861.50;;;;;;;8.34;70.63;101039.00;685843;28;92189;-73
2021/11/22 00:43:22;;;;;;;935.40;869.80;;;;;;;8.35;70.71;101032.63;684477;28;69128;-72
2021/11/22 00:43:44;;;;;;;896.85;832.38;;;;;;;8.35;70.61;101038.00;685307;28;21375;-73
2021/11/22 00:44:07;;;;;;;898.05;833.58;;;;;;;8.35;70.54;101033.44;686819;28;907;-73
2021/11/22 00:44:29;;;;;;;916.97;852.20;;;;;;;8.34;70.58;101034.47;686570;28;44116;-72
2021/11/22 00:44:50;;;;;;;903.30;838.90;;;;;;;8.37;70.30;101036.00;687668;28;46137;-72
2021/11/22 00:45:12;;;;;;;916.63;851.83;;;;;;;8.36;70.52;101035.16;687758;28;23459;-72
2021/11/22 00:45:34;;;;;;;935.63;870.10;;;;;;;8.36;70.27;101040.53;687137;28;45239;-72
2021/11/22 00:45:56;;;;;;;917.90;852.80;;;;;;;8.35;70.27;101036.16;687456;28;45197;-73
2021/11/22 00:46:17;;;;;;;941.42;875.75;;;;;;;8.35;70.28;101040.69;687961;28;46370;-72
2021/11/22 00:46:39;;;;;;;935.70;870.15;;;;;;;8.35;70.07;101041.53;687895;28;22304;-72
2021/11/22 00:47:00;;;;;;;915.80;850.85;;;;;;;8.36;70.12;101045.09;686915;28;46311;-72
2021/11/22 00:47:22;;;;;;;923.70;858.55;;;;;;;8.36;70.37;101039.69;688096;28;22255;-73
2021/11/22 00:47:44;;;;;;;933.47;867.72;;;;;;;8.37;70.39;101042.25;685580;28;46961;-72
2021/11/22 00:48:06;;;;;;;917.65;852.28;;;;;;;8.39;70.11;101042.09;681895;28;44162;-72
2021/11/22 00:48:27;;;;;;;899.60;835.20;;;;;;;8.40;70.43;101046.44;682505;28;45208;-72
2021/11/22 00:48:49;;;;;;;905.75;841.13;;;;;;;8.41;70.42;101048.97;685321;28;22397;-72
2021/11/22 00:49:11;;;;;;;926.33;861.05;;;;;;;8.43;70.15;101047.03;684864;28;43979;-72
2021/11/22 00:49:33;;;;;;;929.80;864.38;;;;;;;8.44;70.43;101042.47;685068;28;45275;-72
2021/11/22 00:49:54;;;;;;;931.03;865.53;;;;;;;8.44;70.02;101043.31;684898;28;45203;-73
2021/11/22 00:50:16;;;;;;;936.58;870.95;;;;;;;8.43;70.02;101038.97;688201;28;23319;-72
2021/11/22 00:50:39;;;;;;;939.60;873.90;;;;;;;8.42;69.95;101045.31;686292;28;69255;-72
2021/11/22 00:51:01;;;;;;;943.15;877.33;;;;;;;8.39;69.95;101051.00;687259;28;44747;-72
2021/11/22 00:51:23;;;;;;;947.80;881.88;;;;;;;8.38;69.81;101043.91;687070;28;43666;-72
2021/11/22 00:51:45;;;;;;;953.33;887.08;;;;;;;8.39;69.96;101047.47;687616;28;44069;-72
2021/11/22 00:52:07;;;;;;;916.65;851.60;;;;;;;8.38;70.16;101046.59;686696;28;45214;-72
2021/11/22 00:52:28;;;;;;;925.92;860.67;;;;;;;8.40;69.74;101052.69;686930;28;45349;-72
2021/11/22 00:52:50;;;;;;;937.78;871.97;;;;;;;8.40;70.01;101049.13;686617;28;44424;-72
2021/11/22 00:53:12;;;;;;;944.53;878.60;;;;;;;8.40;70.10;101050.00;688099;28;22403;-72
2021/11/22 00:53:34;;;;;;;937.47;871.78;;;;;;;8.41;70.07;101051.69;686572;28;69367;-73
2021/11/22 00:53:57;;;;;;;945.80;879.83;;;;;;;8.41;69.90;101050.84;688011;28;46348;-72
2021/11/22 00:54:19;;;;;;;953.97;887.78;;;;;;;8.41;69.87;101048.16;685902;28;45173;-72
2021/11/22 00:54:41;;;;;;;910.20;845.25;;;;;;;8.40;69.72;101057.22;686864;28;69392;-72
2021/11/22 00:55:04;;;;;;;903.35;838.65;;;;;;;8.41;69.97;101050.84;690732;28;22395;-72
2021/11/22 00:55:25;;;;;;;927.03;861.53;;;;;;;8.39;69.80;101048.31;685955;28;68971;-72
2021/11/22 00:55:49;;;;;;;933.10;867.50;;;;;;;8.40;70.11;101059.91;683454;28;44355;-72
2021/11/22 00:56:10;;;;;;;937.00;871.28;;;;;;;8.39;70.04;101059.06;683758;28;69628;-73
2021/11/22 00:56:31;;;;;;;934.38;868.75;;;;;;;8.37;70.01;101046.75;685645;28;23514;-72
2021/11/22 00:56:52;;;;;;;912.13;847.15;;;;;;;8.38;69.93;101057.38;684724;28;46116;-73
2021/11/22 00:57:15;;;;;;;934.38;868.72;;;;;;;8.37;69.89;101058.38;685474;28;23537;-73
2021/11/22 00:57:36;;;;;;;937.35;871.45;;;;;;;8.37;70.01;101062.91;685819;28;46307;-73
2021/11/22 00:57:58;;;;;;;928.33;862.63;;;;;;;8.35;70.03;101054.16;686547;28;45350;-73
2021/11/22 00:58:19;;;;;;;935.92;870.22;;;;;;;8.36;69.85;101061.22;687325;28;23515;-73
2021/11/22 00:58:41;;;;;;;943.22;877.13;;;;;;;8.35;69.72;101059.53;688186;28;22248;-72
2021/11/22 00:59:03;;;;;;;933.17;867.45;;;;;;;8.35;70.07;101065.75;686956;28;67422;-73
2021/11/22 00:59:24;;;;;;;932.50;866.95;;;;;;;8.35;70.03;101062.22;687391;28;1892;-72
2021/11/22 00:59:45;;;;;;;943.83;877.83;;;;;;;8.36;69.87;101058.53;687315;28;23377;-72
2021/11/22 01:00:11;;;;;;;937.35;871.55;;;;;;;8.34;70.10;101063.22;687498;28;46246;-72
2021/11/22 01:00:34;;;;;;;947.60;881.35;;;;;;;8.33;70.04;101062.38;686583;28;58910;-72
2021/11/22 01:00:55;;;;;;;945.92;879.75;;;;;;;8.35;70.11;101070.28;687333;28;22532;-73
2021/11/22 01:01:16;;;;;;;939.90;874.13;;;;;;;8.32;69.78;101065.22;689061;28;1641;-72
2021/11/22 01:01:38;;;;;;;951.08;885.08;;;;;;;8.33;70.12;101065.06;686616;28;44169;-72
2021/11/22 01:02:00;;;;;;;955.30;889.08;;;;;;;8.34;70.09;101064.06;688583;28;22494;-72
2021/11/22 01:02:22;;;;;;;943.95;878.13;;;;;;;8.36;69.94;101074.69;686448;28;69283;-72
2021/11/22 01:02:44;;;;;;;911.88;846.92;;;;;;;8.36;69.94;101072.00;687660;28;21553;-72
2021/11/22 01:03:05;;;;;;;912.53;847.60;;;;;;;8.35;69.97;101078.38;687169;28;44395;-72
2021/11/22 01:03:28;;;;;;;927.70;862.20;;;;;;;8.32;69.97;101067.91;686503;28;43635;-72
2021/11/22 01:03:49;;;;;;;934.60;868.92;;;;;;;8.33;69.84;101072.31;687468;28;46394;-72
2021/11/22 01:04:10;;;;;;;923.40;858.05;;;;;;;8.31;70.03;101080.53;687431;28;44667;-72
2021/11/22 01:04:34;;;;;;;930.90;865.38;;;;;;;8.35;69.83;101086.44;688383;28;21221;-72
2021/11/22 01:04:56;;;;;;;943.28;877.38;;;;;;;8.36;69.91;101083.59;683654;28;67347;-72
2021/11/22 01:05:18;;;;;;;954.53;888.33;;;;;;;8.35;70.23;101078.38;683943;28;67287;-73
2021/11/22 01:05:41;;;;;;;931.10;865.47;;;;;;;8.33;69.97;101073.13;685657;28;21403;-72
2021/11/22 01:06:02;;;;;;;909.65;844.78;;;;;;;8.34;70.14;101080.22;681658;28;69056;-72
2021/11/22 01:06:24;;;;;;;931.28;865.78;;;;;;;8.35;70.26;101078.38;682855;28;23440;-72
2021/11/22 01:06:46;;;;;;;928.35;862.83;;;;;;;8.34;70.32;101080.22;678604;28;69389;-72
2021/11/22 01:07:07;;;;;;;934.17;868.47;;;;;;;8.33;69.93;101075.00;685240;28;22405;-72
2021/11/22 01:07:30;;;;;;;937.30;871.67;;;;;;;8.34;69.98;101080.22;684316;28;45383;-73
2021/11/22 01:07:51;;;;;;;937.20;871.42;;;;;;;8.31;70.03;101077.84;683864;28;46395;-73
2021/11/22 01:08:12;;;;;;;938.90;873.10;;;;;;;8.32;70.21;101081.38;686847;28;46854;-72
2021/11/22 01:08:35;;;;;;;918.50;853.30;;;;;;;8.30;70.14;101076.13;687322;28;23429;-72
2021/11/22 01:08:56;;;;;;;898.27;833.67;;;;;;;8.29;70.25;101078.00;687378;28;45233;-72
2021/11/22 01:09:18;;;;;;;924.78;859.40;;;;;;;8.29;70.29;101082.50;687125;28;45274;-72
2021/11/22 01:09:39;;;;;;;939.95;874.05;;;;;;;8.31;70.15;101080.53;687982;28;21302;-73
2021/11/22 01:10:01;;;;;;;944.58;878.67;;;;;;;8.34;70.39;101087.44;687628;28;45233;-72
2021/11/22 01:10:23;;;;;;;940.85;875.13;;;;;;;8.34;70.21;101088.31;687233;28;45352;-72
2021/11/22 01:10:45;;;;;;;943.20;877.33;;;;;;;8.35;70.33;101092.66;686932;28;46363;-72
2021/11/22 01:11:07;;;;;;;947.70;881.63;;;;;;;8.33;70.07;101091.97;688138;28;22324;-72
2021/11/22 01:11:29;;;;;;;941.47;875.65;;;;;;;8.31;70.25;101080.53;686364;28;68321;-72
2021/11/22 01:11:50;;;;;;;949.42;883.20;;;;;;;8.34;70.04;101084.75;688834;28;22414;-73
2021/11/22 01:12:11;;;;;;;954.13;887.92;;;;;;;8.34;69.95;101088.31;688242;28;22390;-73
2021/11/22 01:12:34;;;;;;;913.85;848.92;;;;;;;8.35;69.83;101089.97;687186;28;45236;-72
2021/11/22 01:12:56;;;;;;;926.28;860.80;;;;;;;8.35;69.87;101091.81;684898;28;89265;-72
2021/11/22 01:13:17;;;;;;;935.90;870.30;;;;;;;8.33;69.89;101086.59;687921;28;22374;-72
2021/11/22 01:13:38;;;;;;;922.22;857.03;;;;;;;8.32;69.87;101092.97;687689;28;46252;-72
2021/11/22 01:14:01;;;;;;;922.33;857.13;;;;;;;8.27;70.08;101088.03;688003;28;23463;-72
2021/11/22 01:14:22;;;;;;;925.60;860.17;;;;;;;8.30;69.82;101090.44;686287;28;69840;-72
2021/11/22 01:14:44;;;;;;;909.03;844.20;;;;;;;8.30;69.81;101101.19;688244;28;21663;-72
2021/11/22 01:15:08;;;;;;;928.58;863.22;;;;;;;8.30;70.02;101097.66;688435;28;23478;-72
2021/11/22 01:15:33;;;;;;;936.58;871.08;;;;;;;8.29;69.96;101095.97;683263;28;115133;-72
2021/11/22 01:15:54;;;;;;;949.92;883.78;;;;;;;8.26;70.01;101094.44;684173;28;115196;-72
2021/11/22 01:16:16;;;;;;;948.90;882.80;;;;;;;8.26;70.09;101101.66;685444;28;45259;-72
2021/11/22 01:16:38;;;;;;;949.08;882.97;;;;;;;8.23;70.03;101096.59;687957;28;23725;-73
2021/11/22 01:17:01;;;;;;;922.28;856.88;;;;;;;8.20;69.86;101091.53;686522;28;69411;-72
2021/11/22 01:17:22;;;;;;;924.45;859.00;;;;;;;8.20;69.81;101091.53;686920;28;47668;-70
2021/11/22 01:17:44;;;;;;;933.60;867.83;;;;;;;8.19;70.03;101097.91;687358;28;45236;-72
2021/11/22 01:18:06;;;;;;;944.35;878.25;;;;;;;8.14;69.86;101092.97;691063;28;21011;-72
2021/11/22 01:18:28;;;;;;;931.53;865.70;;;;;;;8.13;69.79;101093.97;688632;28;68440;-72
2021/11/22 01:18:50;;;;;;;932.60;866.53;;;;;;;8.15;69.87;101099.19;686741;28;45297;-72
2021/11/22 01:19:11;;;;;;;939.08;873.25;;;;;;;8.16;70.18;101104.41;686607;28;45034;-72
2021/11/22 01:19:33;;;;;;;939.05;873.22;;;;;;;8.13;70.17;101096.66;687434;28;23493;-72
2021/11/22 01:19:55;;;;;;;940.38;874.42;;;;;;;8.14;70.21;101095.66;687893;28;21601;-72
2021/11/22 01:20:20;;;;;;;922.30;857.00;;;;;;;8.13;70.27;101102.03;686157;28;69469;-72
2021/11/22 01:20:43;;;;;;;931.78;866.08;;;;;;;8.14;70.19;101109.13;680630;28;115750;-72
2021/11/22 01:21:06;;;;;;;930.30;864.65;;;;;;;8.14;70.11;101102.91;685512;28;15923;-72
2021/11/22 01:21:27;;;;;;;943.78;877.65;;;;;;;8.13;70.31;101102.03;684938;28;46325;-72
2021/11/22 01:21:48;;;;;;;955.47;888.97;;;;;;;8.12;70.14;101103.88;684701;28;46422;-72
2021/11/22 01:22:10;;;;;;;953.75;887.35;;;;;;;8.14;70.29;101102.91;685269;28;22218;-72
2021/11/22 01:22:32;;;;;;;962.25;895.63;;;;;;;8.10;70.34;101100.50;684839;28;1747;-72
2021/11/22 01:22:54;;;;;;;961.42;894.72;;;;;;;8.13;70.15;101104.72;684548;28;90139;-72
2021/11/22 01:23:15;;;;;;;957.38;890.88;;;;;;;8.14;70.42;101109.13;685132;28;22357;-72
2021/11/22 01:23:38;;;;;;;922.63;857.03;;;;;;;8.13;70.39;101099.34;682428;28;21413;-72
2021/11/22 01:23:59;;;;;;;930.53;864.75;;;;;;;8.10;70.20;101092.44;681582;28;44329;-72
2021/11/22 01:24:21;;;;;;;940.38;874.38;;;;;;;8.12;70.42;101111.97;679949;28;43757;-72
2021/11/22 01:24:42;;;;;;;935.92;869.97;;;;;;;8.12;70.07;101111.97;681536;28;46310;-72
2021/11/22 01:25:04;;;;;;;931.13;865.40;;;;;;;8.10;70.25;101105.91;682734;28;22396;-72
2021/11/22 01:25:27;;;;;;;942.38;876.35;;;;;;;8.12;70.03;101108.44;685057;28;46287;-72
2021/11/22 01:25:48;;;;;;;949.20;882.80;;;;;;;8.10;70.13;101111.28;683275;28;46086;-72
2021/11/22 01:26:09;;;;;;;955.97;889.47;;;;;;;8.12;70.09;101113.81;685058;28;46319;-72
2021/11/22 01:26:31;;;;;;;959.55;892.95;;;;;;;8.09;70.26;101109.56;684480;28;21980;-71
2021/11/22 01:26:53;;;;;;;957.42;890.85;;;;;;;8.12;70.33;101111.13;681645;28;45285;-72
2021/11/22 01:27:15;;;;;;;955.17;888.67;;;;;;;8.12;70.10;101109.28;681570;28;46364;-72
2021/11/22 01:27:36;;;;;;;949.40;883.13;;;;;;;8.13;70.09;101107.41;681979;28;22414;-72
2021/11/22 01:27:58;;;;;;;958.83;891.92;;;;;;;8.13;70.41;101112.78;683913;28;45175;-72
2021/11/22 01:28:20;;;;;;;959.45;892.80;;;;;;;8.16;70.35;101108.97;685464;28;22373;-72
2021/11/22 01:28:41;;;;;;;972.53;905.35;;;;;;;8.17;70.42;101107.97;686368;28;67496;-72
2021/11/22 01:29:03;;;;;;;983.00;915.53;;;;;;;8.16;70.42;101107.13;688951;28;1415;-72
2021/11/22 01:29:24;;;;;;;959.72;892.97;;;;;;;8.15;70.20;101108.13;685507;28;45003;-72
2021/11/22 01:29:47;;;;;;;914.72;849.42;;;;;;;8.17;70.26;101110.66;687617;28;22388;-72
2021/11/22 01:30:11;;;;;;;930.15;864.40;;;;;;;8.17;70.00;101116.06;687682;28;45255;-72
2021/11/22 01:30:33;;;;;;;945.53;879.28;;;;;;;8.16;70.33;101107.13;682056;28;115127;-72
2021/11/22 01:30:56;;;;;;;949.83;883.45;;;;;;;8.16;70.16;101112.50;687231;28;1425;-72
2021/11/22 01:31:18;;;;;;;952.85;886.38;;;;;;;8.16;70.09;101115.19;686214;28;67468;-72
2021/11/22 01:31:40;;;;;;;948.53;882.13;;;;;;;8.17;70.10;101116.88;686149;28;2094;-72
2021/11/22 01:32:03;;;;;;;942.40;876.22;;;;;;;8.17;69.87;101111.50;683553;28;67472;-72
2021/11/22 01:32:26;;;;;;;935.38;869.45;;;;;;;8.14;69.66;101108.28;687094;28;1613;-72
2021/11/22 01:32:48;;;;;;;945.70;879.30;;;;;;;8.15;69.60;101116.19;686222;28;14838;-71
2021/11/22 01:33:13;;;;;;;915.38;850.13;;;;;;;8.11;69.87;101107.56;687181;28;44379;-72
2021/11/22 01:33:36;;;;;;;939.03;873.13;;;;;;;8.16;69.66;101112.50;683487;28;114698;-72
2021/11/22 01:33:59;;;;;;;934.65;868.80;;;;;;;8.17;69.65;101124.13;684981;28;114033;-72
2021/11/22 01:34:20;;;;;;;939.22;873.38;;;;;;;8.18;69.91;101125.78;688180;28;22224;-72
2021/11/22 01:34:42;;;;;;;931.40;865.63;;;;;;;8.17;69.94;101119.56;688274;28;22401;-72
2021/11/22 01:35:05;;;;;;;937.63;871.63;;;;;;;8.20;69.96;101127.34;687304;28;45298;-72
2021/11/22 01:35:27;;;;;;;942.65;876.55;;;;;;;8.20;69.86;101126.50;685807;28;69111;-72
2021/11/22 01:35:50;;;;;;;949.53;883.15;;;;;;;8.19;69.68;101125.66;687982;28;22481;-72
2021/11/22 01:36:12;;;;;;;943.10;876.90;;;;;;;8.18;69.63;101123.09;685478;28;90724;-72
2021/11/22 01:36:34;;;;;;;933.03;867.30;;;;;;;8.18;69.41;101123.97;687002;28;45140;-72
2021/11/22 01:36:55;;;;;;;922.97;857.50;;;;;;;8.18;69.68;101128.47;687812;28;22480;-72
2021/11/22 01:37:19;;;;;;;946.70;880.55;;;;;;;8.16;69.30;101120.56;686274;28;44356;-72
2021/11/22 01:37:41;;;;;;;953.63;887.05;;;;;;;8.14;69.49;101122.56;683745;28;92238;-72
2021/11/22 01:38:02;;;;;;;914.83;849.40;;;;;;;8.13;69.23;101123.56;687418;28;22462;-72
2021/11/22 01:38:24;;;;;;;938.30;872.45;;;;;;;8.11;69.29;101129.09;686413;28;44907;-72
2021/11/22 01:38:46;;;;;;;944.35;878.28;;;;;;;8.09;69.05;101124.88;687941;28;45316;-72
2021/11/22 01:39:07;;;;;;;948.72;882.10;;;;;;;8.11;69.02;101130.94;686837;28;45429;-72
2021/11/22 01:39:28;;;;;;;956.75;890.22;;;;;;;8.11;69.14;101128.25;685728;28;21073;-72
2021/11/22 01:39:51;;;;;;;971.83;904.67;;;;;;;8.07;69.00;101125.03;684325;28;44532;-72
2021/11/22 01:40:15;;;;;;;973.72;906.63;;;;;;;8.07;69.34;101132.22;684615;28;45282;-72
2021/11/22 01:40:37;;;;;;;977.08;909.83;;;;;;;8.07;69.38;101132.22;681489;28;93000;-72
2021/11/22 01:41:01;;;;;;;984.60;917.00;;;;;;;8.06;69.28;101130.56;683944;28;44374;-72
2021/11/22 01:41:23;;;;;;;986.50;918.85;;;;;;;8.05;69.38;101128.84;681067;28;90495;-72
2021/11/22 01:41:45;;;;;;;983.88;916.28;;;;;;;8.04;69.13;101129.84;684429;28;44395;-72
2021/11/22 01:42:07;;;;;;;1003.60;934.97;;;;;;;8.03;69.29;101133.56;684570;28;46709;-72
2021/11/22 01:42:28;;;;;;;997.47;929.30;;;;;;;8.02;69.27;101134.53;682182;28;46717;-72
2021/11/22 01:42:51;;;;;;;934.35;868.40;;;;;;;8.02;69.13;101131.84;684335;28;22401;-72
2021/11/22 01:43:14;;;;;;;951.22;884.78;;;;;;;8.00;69.34;101137.38;684445;28;69428;-72
2021/11/22 01:43:35;;;;;;;964.40;897.63;;;;;;;8.01;69.24;101133.69;685897;28;69449;-72